Sealyon — 2CGJ2 — position and weather

sailwx.info

Track history (hours):
 
Tides and Currents Weather Stations Pressure Air Temp Water Temp Dewpoint Dewpoint Depression Visibility Wind Speed Wind Dir Waves Ship Positions

Sealyon

Last reported at 2017-Jan-22 21:11 UTC. Time now 2017-Jan-23 19:02 UTC.
Position N 18°02' W 063°06'.

Length 62 m; draft 3.2 m.

MMSI: 235072538.

Date/timePositionNaut miles runAvg speedWind from/ knotsBaromVisibWave heightAir tempDewpointWater temp
2017-Jan-22 21:11N 18°02' W 063°06'2 0.1
2017-Jan-21 12:30N 18°03' W 063°09'1 0.6
2017-Jan-21 11:33N 18°03' W 063°09'0 0.0
2017-Jan-21 10:31N 18°03' W 063°09'0 0.0
2017-Jan-21 09:20N 18°03' W 063°09'0 0.0
2017-Jan-21 08:29N 18°03' W 063°09'0 0.0
2017-Jan-21 07:27N 18°03' W 063°09'0 0.0
2017-Jan-21 06:25N 18°03' W 063°09'0 0.0
2017-Jan-21 05:25N 18°03' W 063°09'0 0.0
2017-Jan-21 04:32N 18°03' W 063°09'0 0.0
2017-Jan-21 03:33N 18°03' W 063°09'0 0.0
2017-Jan-21 02:30N 18°03' W 063°08'0 0.0
2017-Jan-21 01:31N 18°03' W 063°09'0 0.0
2017-Jan-21 00:28N 18°03' W 063°09'0 0.0
2017-Jan-20 23:26N 18°03' W 063°09'0 0.0
2017-Jan-20 22:33N 18°03' W 063°09'0 0.0
2017-Jan-20 21:34N 18°03' W 063°08'3 2.5
2017-Jan-20 20:30N 18°02' W 063°06'0 0.0
2017-Jan-20 19:24N 18°02' W 063°06'0 0.0
2017-Jan-20 18:31N 18°02' W 063°06'  
2017-Jan-16 08:23N 18°10' W 063°07'0 0.0
2017-Jan-16 07:32N 18°10' W 063°07'0 0.0
2017-Jan-16 05:22N 18°10' W 063°07'0 0.0
2017-Jan-16 00:13N 18°10' W 063°07'6 2.7
2017-Jan-15 22:06N 18°05' W 063°09'5 7.9
2017-Jan-15 21:30N 18°02' W 063°06'0 0.1
2017-Jan-15 20:31N 18°02' W 063°06'0 0.0
2017-Jan-15 19:29N 18°02' W 063°06'0 0.0
2017-Jan-15 18:26N 18°02' W 063°06'0 0.0
2017-Jan-15 17:24N 18°02' W 063°06'0 0.0
2017-Jan-15 16:33N 18°02' W 063°06'0 0.0
2017-Jan-15 15:31N 18°02' W 063°06'0 0.0
2017-Jan-15 14:32N 18°02' W 063°06'0 0.0
2017-Jan-15 13:29N 18°02' W 063°06'0 0.0
2017-Jan-15 12:24N 18°02' W 063°06'0 0.0
2017-Jan-15 11:28N 18°02' W 063°06'0 0.0
2017-Jan-15 10:25N 18°02' W 063°06'0 0.0
2017-Jan-15 09:32N 18°02' W 063°06'0 0.0
2017-Jan-15 08:33N 18°02' W 063°06'0 0.0
2017-Jan-15 07:31N 18°02' W 063°06'0 0.0
2017-Jan-15 06:28N 18°02' W 063°06'0 0.0
2017-Jan-15 05:29N 18°02' W 063°06'0 0.0
2017-Jan-15 04:24N 18°02' W 063°06'0 0.0
2017-Jan-15 03:33N 18°02' W 063°06'0 0.0
2017-Jan-15 02:31N 18°02' W 063°06'0 0.0
2017-Jan-15 01:31N 18°02' W 063°06'0 0.0
2017-Jan-15 00:32N 18°02' W 063°06'0 0.0
2017-Jan-14 23:30N 18°02' W 063°06'0 0.0
2017-Jan-14 22:27N 18°02' W 063°06'0 0.0
2017-Jan-14 21:25N 18°02' W 063°06'0 0.0
2017-Jan-14 20:23N 18°02' W 063°06'0 0.0
2017-Jan-14 19:32N 18°02' W 063°06'0 0.0
2017-Jan-14 18:33N 18°02' W 063°06'0 0.0
2017-Jan-14 17:31N 18°02' W 063°06'0 0.0
2017-Jan-14 16:29N 18°02' W 063°06'0 0.0
2017-Jan-14 15:14N 18°02' W 063°06'0 0.0
2017-Jan-14 14:27N 18°02' W 063°06'0 0.0
2017-Jan-14 13:25N 18°02' W 063°06'0 0.0
2017-Jan-14 12:22N 18°02' W 063°06'0 0.0
2017-Jan-14 03:31N 18°02' W 063°06'0 0.0
2017-Jan-13 23:31N 18°02' W 063°06'0 0.0
2017-Jan-13 22:31N 18°02' W 063°06'0 0.0
2017-Jan-13 21:32N 18°02' W 063°06'0 0.0
2017-Jan-13 20:30N 18°02' W 063°06'0 0.0
2017-Jan-13 19:28N 18°02' W 063°06'0 0.0
2017-Jan-13 18:25N 18°02' W 063°06'0 0.0
2017-Jan-13 17:32N 18°02' W 063°06'0 0.0
2017-Jan-13 16:32N 18°02' W 063°06'0 0.0
2017-Jan-13 15:33N 18°02' W 063°06'0 0.0
2017-Jan-13 14:31N 18°02' W 063°06'0 0.0
2017-Jan-13 13:29N 18°02' W 063°06'0 0.0
2017-Jan-13 12:26N 18°02' W 063°06'0 0.0
2017-Jan-13 11:27N 18°02' W 063°06'0 0.0
2017-Jan-13 10:34N 18°02' W 063°06'0 0.0
2017-Jan-13 09:31N 18°02' W 063°06'0 0.0
2017-Jan-13 08:32N 18°02' W 063°06'0 0.0
2017-Jan-13 07:29N 18°02' W 063°06'0 0.0
2017-Jan-13 06:30N 18°02' W 063°06'0 0.0
2017-Jan-13 05:28N 18°02' W 063°06'0 0.0
2017-Jan-13 04:26N 18°02' W 063°06'0 0.0
2017-Jan-13 03:32N 18°02' W 063°06'0 0.0
2017-Jan-13 02:33N 18°02' W 063°06'0 0.0
2017-Jan-13 01:30N 18°02' W 063°06'0 0.0
2017-Jan-13 00:31N 18°02' W 063°06'0 0.0
2017-Jan-12 23:29N 18°02' W 063°06'0 0.0
2017-Jan-12 22:27N 18°02' W 063°06'0 0.0
2017-Jan-12 21:33N 18°02' W 063°06'  
Track history (hours):
 
Tides and Currents Weather Stations Pressure Air Temp Water Temp Dewpoint Dewpoint Depression Visibility Wind Speed Wind Dir Waves Ship Positions

Sealyon

Last reported at 2017-Jan-22 21:11 UTC. Time now 2017-Jan-23 19:02 UTC.
Position N 18°02' W 063°06'.

Length 62 m; draft 3.2 m.

MMSI: 235072538.

Date/timePositionNaut miles runAvg speedWind from/ knotsBaromVisibWave heightAir tempDewpointWater temp
2017-Jan-22 21:11N 18°02' W 063°06'2 0.1
2017-Jan-21 12:30N 18°03' W 063°09'1 0.6
2017-Jan-21 11:33N 18°03' W 063°09'0 0.0
2017-Jan-21 10:31N 18°03' W 063°09'0 0.0
2017-Jan-21 09:20N 18°03' W 063°09'0 0.0
2017-Jan-21 08:29N 18°03' W 063°09'0 0.0
2017-Jan-21 07:27N 18°03' W 063°09'0 0.0
2017-Jan-21 06:25N 18°03' W 063°09'0 0.0
2017-Jan-21 05:25N 18°03' W 063°09'0 0.0
2017-Jan-21 04:32N 18°03' W 063°09'0 0.0
2017-Jan-21 03:33N 18°03' W 063°09'0 0.0
2017-Jan-21 02:30N 18°03' W 063°08'0 0.0
2017-Jan-21 01:31N 18°03' W 063°09'0 0.0
2017-Jan-21 00:28N 18°03' W 063°09'0 0.0
2017-Jan-20 23:26N 18°03' W 063°09'0 0.0
2017-Jan-20 22:33N 18°03' W 063°09'0 0.0
2017-Jan-20 21:34N 18°03' W 063°08'3 2.5
2017-Jan-20 20:30N 18°02' W 063°06'0 0.0
2017-Jan-20 19:24N 18°02' W 063°06'0 0.0
2017-Jan-20 18:31N 18°02' W 063°06'  
2017-Jan-16 08:23N 18°10' W 063°07'0 0.0
2017-Jan-16 07:32N 18°10' W 063°07'0 0.0
2017-Jan-16 05:22N 18°10' W 063°07'0 0.0
2017-Jan-16 00:13N 18°10' W 063°07'6 2.7
2017-Jan-15 22:06N 18°05' W 063°09'5 7.9
2017-Jan-15 21:30N 18°02' W 063°06'0 0.1
2017-Jan-15 20:31N 18°02' W 063°06'0 0.0
2017-Jan-15 19:29N 18°02' W 063°06'0 0.0
2017-Jan-15 18:26N 18°02' W 063°06'0 0.0
2017-Jan-15 17:24N 18°02' W 063°06'0 0.0
2017-Jan-15 16:33N 18°02' W 063°06'0 0.0
2017-Jan-15 15:31N 18°02' W 063°06'0 0.0
2017-Jan-15 14:32N 18°02' W 063°06'0 0.0
2017-Jan-15 13:29N 18°02' W 063°06'0 0.0
2017-Jan-15 12:24N 18°02' W 063°06'0 0.0
2017-Jan-15 11:28N 18°02' W 063°06'0 0.0
2017-Jan-15 10:25N 18°02' W 063°06'0 0.0
2017-Jan-15 09:32N 18°02' W 063°06'0 0.0
2017-Jan-15 08:33N 18°02' W 063°06'0 0.0
2017-Jan-15 07:31N 18°02' W 063°06'0 0.0
2017-Jan-15 06:28N 18°02' W 063°06'0 0.0
2017-Jan-15 05:29N 18°02' W 063°06'0 0.0
2017-Jan-15 04:24N 18°02' W 063°06'0 0.0
2017-Jan-15 03:33N 18°02' W 063°06'0 0.0
2017-Jan-15 02:31N 18°02' W 063°06'0 0.0
2017-Jan-15 01:31N 18°02' W 063°06'0 0.0
2017-Jan-15 00:32N 18°02' W 063°06'0 0.0
2017-Jan-14 23:30N 18°02' W 063°06'0 0.0
2017-Jan-14 22:27N 18°02' W 063°06'0 0.0
2017-Jan-14 21:25N 18°02' W 063°06'0 0.0
2017-Jan-14 20:23N 18°02' W 063°06'0 0.0
2017-Jan-14 19:32N 18°02' W 063°06'0 0.0
2017-Jan-14 18:33N 18°02' W 063°06'0 0.0
2017-Jan-14 17:31N 18°02' W 063°06'0 0.0
2017-Jan-14 16:29N 18°02' W 063°06'0 0.0
2017-Jan-14 15:14N 18°02' W 063°06'0 0.0
2017-Jan-14 14:27N 18°02' W 063°06'0 0.0
2017-Jan-14 13:25N 18°02' W 063°06'0 0.0
2017-Jan-14 12:22N 18°02' W 063°06'0 0.0
2017-Jan-14 03:31N 18°02' W 063°06'0 0.0
2017-Jan-13 23:31N 18°02' W 063°06'0 0.0
2017-Jan-13 22:31N 18°02' W 063°06'0 0.0
2017-Jan-13 21:32N 18°02' W 063°06'0 0.0
2017-Jan-13 20:30N 18°02' W 063°06'0 0.0
2017-Jan-13 19:28N 18°02' W 063°06'0 0.0
2017-Jan-13 18:25N 18°02' W 063°06'0 0.0
2017-Jan-13 17:32N 18°02' W 063°06'0 0.0
2017-Jan-13 16:32N 18°02' W 063°06'0 0.0
2017-Jan-13 15:33N 18°02' W 063°06'0 0.0
2017-Jan-13 14:31N 18°02' W 063°06'0 0.0
2017-Jan-13 13:29N 18°02' W 063°06'0 0.0
2017-Jan-13 12:26N 18°02' W 063°06'0 0.0
2017-Jan-13 11:27N 18°02' W 063°06'0 0.0
2017-Jan-13 10:34N 18°02' W 063°06'0 0.0
2017-Jan-13 09:31N 18°02' W 063°06'0 0.0
2017-Jan-13 08:32N 18°02' W 063°06'0 0.0
2017-Jan-13 07:29N 18°02' W 063°06'0 0.0
2017-Jan-13 06:30N 18°02' W 063°06'0 0.0
2017-Jan-13 05:28N 18°02' W 063°06'0 0.0
2017-Jan-13 04:26N 18°02' W 063°06'0 0.0
2017-Jan-13 03:32N 18°02' W 063°06'0 0.0
2017-Jan-13 02:33N 18°02' W 063°06'0 0.0
2017-Jan-13 01:30N 18°02' W 063°06'0 0.0
2017-Jan-13 00:31N 18°02' W 063°06'0 0.0
2017-Jan-12 23:29N 18°02' W 063°06'0 0.0
2017-Jan-12 22:27N 18°02' W 063°06'0 0.0
2017-Jan-12 21:33N 18°02' W 063°06'  

Dump ship's entire track history